Time;durP1;ratioP1;P1;durP2;ratioP2;P2;SDS_P1;SDS_P2;PMS_P1;PMS_P2;Temp;Humidity;BMP_temperature;BMP_pressure;BME280_temperature;BME280_humidity;BME280_pressure;Samples;Min_cycle;Max_cycle;Signal;HPM_P1;HPM_P2
2022/08/25 00:01:59;;;;;;;9.08;3.80;;;;;;;19.52;98.14;100274.09;1747500;81;20911;-61
2022/08/25 00:04:28;;;;;;;9.30;3.02;;;;;;;19.52;97.98;100276.73;1709486;82;20918;-61
2022/08/25 00:06:56;;;;;;;10.63;3.55;;;;;;;19.44;98.20;100275.53;1708625;82;20934;-61
2022/08/25 00:09:25;;;;;;;7.17;3.00;;;;;;;19.41;98.10;100275.77;1713756;82;20962;-61
2022/08/25 00:11:53;;;;;;;9.68;2.70;;;;;;;19.40;98.58;100280.67;1713987;82;20914;-62
2022/08/25 00:14:30;;;;;;;10.50;2.87;;;;;;;19.42;98.37;100280.57;1710481;82;20922;-61
2022/08/25 00:16:57;;;;;;;8.98;2.40;;;;;;;19.42;98.34;100272.14;1703076;83;20895;-61
2022/08/25 00:19:27;;;;;;;;;;;;;;;19.40;98.57;100263.46;1671480;83;20998;-61
2022/08/25 00:21:54;;;;;;;12.43;2.55;;;;;;;19.35;98.69;100260.34;1713357;82;21127;-61
2022/08/25 00:24:21;;;;;;;18.10;3.30;;;;;;;19.34;98.92;100266.58;1716490;82;20902;-61
2022/08/25 00:26:53;;;;;;;6.83;3.15;;;;;;;19.32;98.99;100260.55;1707042;84;20899;-61
2022/08/25 00:29:25;;;;;;;9.95;2.70;;;;;;;19.31;99.23;100264.16;1698993;82;20934;-61
2022/08/25 00:31:52;;;;;;;9.63;3.02;;;;;;;19.30;99.18;100264.30;1707842;82;20934;-61
2022/08/25 00:34:22;;;;;;;;;;;;;;;19.31;99.05;100256.22;1709045;84;21251;-61
2022/08/25 00:36:52;;;;;;;9.93;4.00;;;;;;;19.34;99.74;100265.25;1703182;82;20152;-61
2022/08/25 00:39:20;;;;;;;8.95;2.83;;;;;;;19.36;99.31;100264.67;1700592;82;21037;-61
2022/08/25 00:41:50;;;;;;;11.35;3.27;;;;;;;19.39;99.24;100259.14;1694525;82;20926;-61
2022/08/25 00:44:18;;;;;;;9.88;2.87;;;;;;;19.41;99.23;100257.22;1705557;83;20970;-61
2022/08/25 00:46:49;;;;;;;11.75;3.90;;;;;;;19.43;99.34;100261.91;1717587;82;21403;-61
2022/08/25 00:49:24;;;;;;;9.43;3.60;;;;;;;19.47;99.46;100255.08;1699207;83;21083;-61
2022/08/25 00:51:56;;;;;;;11.08;3.75;;;;;;;19.51;99.74;100256.52;1706649;82;20913;-61
2022/08/25 00:54:31;;;;;;;7.62;3.70;;;;;;;19.50;100.00;100254.84;1709890;82;20902;-61
2022/08/25 00:57:00;;;;;;;9.33;3.95;;;;;;;19.48;100.00;100259.41;1703570;83;20969;-62
2022/08/25 00:59:27;;;;;;;11.53;3.80;;;;;;;19.51;99.72;100259.17;1705556;83;21049;-62
2022/08/25 01:01:55;;;;;;;12.45;3.50;;;;;;;19.53;99.46;100255.93;1698700;84;20934;-61
2022/08/25 01:04:22;;;;;;;11.40;4.25;;;;;;;19.52;99.58;100258.20;1690826;82;20935;-61
2022/08/25 01:06:49;;;;;;;12.25;3.67;;;;;;;19.52;100.00;100256.88;1676048;84;20966;-61
2022/08/25 01:09:17;;;;;;;10.10;3.65;;;;;;;19.52;99.77;100255.09;1706656;83;21018;-61
2022/08/25 01:11:45;;;;;;;12.33;4.03;;;;;;;19.51;100.00;100249.90;1670024;84;21040;-61
2022/08/25 01:14:17;;;;;;;9.03;3.77;;;;;;;19.52;100.00;100253.77;1704690;84;20942;-62
2022/08/25 01:16:44;;;;;;;8.88;3.50;;;;;;;19.51;100.00;100257.84;1680581;84;20883;-61
2022/08/25 01:19:13;;;;;;;10.53;3.50;;;;;;;19.51;100.00;100259.17;1708528;82;21067;-61
2022/08/25 01:21:45;;;;;;;12.88;4.20;;;;;;;19.52;100.00;100252.90;1710138;83;21018;-61
2022/08/25 01:24:20;;;;;;;10.40;3.45;;;;;;;19.54;100.00;100258.93;1675398;84;21207;-62
2022/08/25 01:26:47;;;;;;;13.50;3.95;;;;;;;19.48;100.00;100260.23;1704132;82;20943;-62
2022/08/25 01:29:24;;;;;;;10.75;3.85;;;;;;;19.47;100.00;100264.34;1700655;84;20959;-61
2022/08/25 01:31:57;;;;;;;;;;;;;;;19.47;100.00;100267.84;1681864;84;21464;-61
2022/08/25 01:34:28;;;;;;;11.43;3.98;;;;;;;19.47;100.00;100263.02;1703020;84;20436;-61
2022/08/25 01:36:56;;;;;;;14.07;4.67;;;;;;;19.43;100.00;100265.88;1662910;84;21095;-61
2022/08/25 01:39:24;;;;;;;12.28;3.50;;;;;;;19.44;100.00;100264.94;1689560;82;21018;-62
2022/08/25 01:42:08;;;;;;;13.32;3.65;;;;;;;19.40;100.00;100260.81;1661351;85;20946;-61
2022/08/25 01:44:40;;;;;;;11.75;4.33;;;;;;;19.48;100.00;100262.05;1696320;84;20939;-61
2022/08/25 01:47:07;;;;;;;12.80;4.17;;;;;;;19.47;100.00;100263.02;1707846;83;20963;-61
2022/08/25 01:49:35;;;;;;;7.37;3.60;;;;;;;19.45;100.00;100262.64;1704596;83;21138;-61
2022/08/25 01:52:15;;;;;;;13.03;4.00;;;;;;;19.38;100.00;100271.16;1665622;85;21001;-61
2022/08/25 01:54:42;;;;;;;11.50;3.87;;;;;;;19.35;100.00;100269.61;1694236;84;20930;-61
2022/08/25 01:57:08;;;;;;;9.03;3.30;;;;;;;19.41;100.00;100263.01;1700900;83;20982;-61
2022/08/25 01:59:35;;;;;;;13.95;4.08;;;;;;;19.42;100.00;100266.84;1683132;84;20919;-62
2022/08/25 02:02:03;;;;;;;10.72;3.95;;;;;;;19.38;100.00;100265.41;1677293;84;21038;-61
2022/08/25 02:04:31;;;;;;;6.78;3.50;;;;;;;19.34;100.00;100269.23;1694228;83;20938;-61
2022/08/25 02:07:05;;;;;;;10.50;3.67;;;;;;;19.29;100.00;100263.42;1705864;83;20930;-61
2022/08/25 02:09:32;;;;;;;11.88;3.90;;;;;;;19.28;100.00;100261.75;1704089;83;20953;-61
2022/08/25 02:11:59;;;;;;;7.35;3.50;;;;;;;19.27;100.00;100254.78;1725246;82;21603;-61
2022/08/25 02:14:27;;;;;;;10.90;3.90;;;;;;;19.29;100.00;100258.13;1732044;82;21517;-61
2022/08/25 02:16:55;;;;;;;16.00;4.35;;;;;;;19.30;100.00;100246.60;1740368;81;20918;-61
2022/08/25 02:19:24;;;;;;;9.68;4.42;;;;;;;19.28;100.00;100248.52;1739408;81;20930;-61
2022/08/25 02:21:52;;;;;;;13.62;3.85;;;;;;;19.25;100.00;100238.16;1731623;82;20962;-61
2022/08/25 02:24:20;;;;;;;8.60;3.85;;;;;;;19.19;100.00;100242.59;1720084;81;20974;-61
2022/08/25 02:26:46;;;;;;;12.45;5.00;;;;;;;19.24;100.00;100243.09;1717292;83;21937;-61
2022/08/25 02:29:15;;;;;;;8.60;4.20;;;;;;;19.22;100.00;100246.33;1705688;83;20910;-61
2022/08/25 02:31:42;;;;;;;15.98;5.15;;;;;;;19.23;100.00;100240.06;1715419;82;20898;-61
2022/08/25 02:34:09;;;;;;;;;;;;;;;19.25;100.00;100243.45;1704716;82;20941;-61
2022/08/25 02:36:37;;;;;;;;;;;;;;;19.26;100.00;100250.42;1712138;83;20078;-62
2022/08/25 02:39:07;;;;;;;9.05;5.10;;;;;;;19.27;100.00;100244.19;1703681;83;21421;-61
2022/08/25 02:41:35;;;;;;;12.50;4.92;;;;;;;19.26;100.00;100247.77;1697745;83;20953;-62
2022/08/25 02:44:05;;;;;;;16.73;5.53;;;;;;;19.26;100.00;100251.75;1715326;82;20894;-62
2022/08/25 02:46:32;;;;;;;12.58;6.22;;;;;;;19.21;100.00;100239.33;1707899;82;21479;-62
2022/08/25 02:48:59;;;;;;;24.87;6.05;;;;;;;19.19;100.00;100223.58;1701086;83;21516;-61
2022/08/25 02:51:28;;;;;;;10.90;4.78;;;;;;;19.16;100.00;100222.48;1712719;82;21057;-61
2022/08/25 02:53:58;;;;;;;19.25;5.75;;;;;;;19.16;100.00;100217.20;1699117;83;20926;-61
2022/08/25 02:56:25;;;;;;;14.80;6.17;;;;;;;19.15;100.00;100223.42;1718201;82;21438;-62
2022/08/25 02:58:52;;;;;;;14.58;5.87;;;;;;;19.14;100.00;100222.23;1746070;81;21014;-61
2022/08/25 03:01:20;;;;;;;15.83;6.12;;;;;;;19.24;100.00;100216.63;1734987;81;21001;-61
2022/08/25 03:03:48;;;;;;;13.48;6.75;;;;;;;19.19;100.00;100220.09;1713144;81;21129;-61
2022/08/25 03:06:18;;;;;;;14.95;6.33;;;;;;;19.22;100.00;100223.83;1736559;81;21569;-61
2022/08/25 03:08:45;;;;;;;12.33;6.05;;;;;;;19.22;100.00;100224.67;1726105;82;20982;-61
2022/08/25 03:11:12;;;;;;;;;;;;;;;19.22;100.00;100225.16;1718156;82;20948;-61
2022/08/25 03:13:39;;;;;;;15.38;6.22;;;;;;;19.24;100.00;100228.53;1738198;81;20442;-61
2022/08/25 03:16:06;;;;;;;;;;;;;;;19.25;100.00;100219.63;1736585;81;21041;-61
2022/08/25 03:18:33;;;;;;;;;;;;;;;19.26;100.00;100217.33;1742565;82;20114;-61
2022/08/25 03:20:59;;;;;;;11.20;4.87;;;;;;;19.24;100.00;100220.59;1770559;80;20113;-61
2022/08/25 03:23:26;;;;;;;12.40;5.35;;;;;;;19.24;100.00;100217.95;1766950;80;21602;-61
2022/08/25 03:28:41;;;;;;;11.60;4.83;;;;;;;19.24;100.00;100215.30;1756723;80;21110;-61
2022/08/25 03:31:09;;;;;;;12.53;4.83;;;;;;;19.27;100.00;100216.39;1753276;81;28026;-61
2022/08/25 03:33:37;;;;;;;8.08;4.85;;;;;;;19.29;100.00;100213.13;1760255;80;20891;-61
2022/08/25 03:36:05;;;;;;;10.25;4.58;;;;;;;19.29;100.00;100213.13;1766669;80;20953;-61
2022/08/25 03:38:32;;;;;;;12.78;5.15;;;;;;;19.31;100.00;100213.86;1755955;80;21491;-61
2022/08/25 03:41:00;;;;;;;12.58;4.00;;;;;;;19.35;100.00;100219.30;1753020;80;21035;-61
2022/08/25 03:43:27;;;;;;;13.75;4.90;;;;;;;19.38;100.00;100222.17;1766359;80;20922;-61
2022/08/25 03:45:54;;;;;;;14.60;4.40;;;;;;;19.43;100.00;100231.45;1758259;80;20973;-62
2022/08/25 03:48:20;;;;;;;17.30;5.30;;;;;;;19.53;100.00;100230.77;1753664;81;21010;-61
2022/08/25 03:50:50;;;;;;;10.08;4.62;;;;;;;19.55;100.00;100227.05;1760830;81;20862;-61
2022/08/25 03:53:18;;;;;;;9.23;4.22;;;;;;;19.56;100.00;100219.94;1764695;81;21036;-61
2022/08/25 03:55:44;;;;;;;7.83;4.45;;;;;;;19.55;100.00;100220.88;1770563;80;20972;-61
2022/08/25 03:58:11;;;;;;;15.85;4.37;;;;;;;19.52;100.00;100229.06;1756956;80;20942;-61
2022/08/25 04:00:38;;;;;;;8.90;3.58;;;;;;;19.54;100.00;100229.80;1769208;80;20906;-61
2022/08/25 04:03:05;;;;;;;14.78;4.67;;;;;;;19.58;100.00;100237.41;1764748;80;20941;-61
2022/08/25 04:05:32;;;;;;;8.73;3.83;;;;;;;19.62;100.00;100238.00;1741573;80;21276;-61
2022/08/25 04:08:00;;;;;;;11.63;3.90;;;;;;;19.65;100.00;100237.77;1758775;81;20929;-61
2022/08/25 04:10:27;;;;;;;14.83;4.40;;;;;;;19.66;100.00;100240.80;1762944;80;20942;-61
2022/08/25 04:12:54;;;;;;;10.32;3.98;;;;;;;19.64;100.00;100246.68;1730351;82;20879;-61
2022/08/25 04:15:21;;;;;;;12.13;4.15;;;;;;;19.65;100.00;100240.41;1705133;83;20968;-62
2022/08/25 04:17:48;;;;;;;16.62;5.00;;;;;;;19.70;100.00;100238.78;1706735;83;20970;-61
2022/08/25 04:20:15;;;;;;;19.80;5.33;;;;;;;19.76;100.00;100243.11;1736630;82;20974;-61
2022/08/25 04:22:42;;;;;;;9.40;3.80;;;;;;;19.77;100.00;100239.48;1700111;83;20958;-61
2022/08/25 04:25:09;;;;;;;10.98;3.98;;;;;;;19.79;100.00;100242.87;1736683;82;20915;-61
2022/08/25 04:27:36;;;;;;;7.50;3.80;;;;;;;19.81;100.00;100240.95;1722491;82;21500;-61
2022/08/25 04:30:04;;;;;;;;;;;;;;;19.82;100.00;100237.33;1734424;82;21009;-61
2022/08/25 04:32:31;;;;;;;12.50;3.77;;;;;;;19.84;100.00;100232.77;1735820;82;20111;-61
2022/08/25 04:34:58;;;;;;;11.38;4.22;;;;;;;19.77;100.00;100220.94;1735250;82;20892;-62
2022/08/25 04:37:25;;;;;;;10.80;4.40;;;;;;;19.77;100.00;100218.29;1724031;82;20875;-61
2022/08/25 04:39:52;;;;;;;8.53;3.67;;;;;;;19.80;100.00;100209.27;1736839;82;20949;-62
2022/08/25 04:42:20;;;;;;;10.95;3.55;;;;;;;19.83;100.00;100207.23;1720231;82;21998;-61
2022/08/25 04:44:47;;;;;;;9.88;3.47;;;;;;;19.91;100.00;100211.91;1736877;82;20962;-62
2022/08/25 04:47:14;;;;;;;14.45;4.42;;;;;;;20.03;100.00;100218.08;1732244;82;20946;-61
2022/08/25 04:49:41;;;;;;;15.20;4.50;;;;;;;20.07;100.00;100226.14;1737607;81;20942;-61
2022/08/25 04:52:07;;;;;;;7.45;3.65;;;;;;;20.16;100.00;100221.42;1737319;82;20942;-61
2022/08/25 04:54:34;;;;;;;10.53;4.00;;;;;;;20.23;100.00;100225.29;1736516;82;20987;-62
2022/08/25 04:57:01;;;;;;;8.48;3.87;;;;;;;20.17;100.00;100224.95;1734537;81;20911;-61
2022/08/25 04:59:27;;;;;;;8.88;3.90;;;;;;;20.16;100.00;100234.68;1737536;81;20857;-61
2022/08/25 05:01:56;;;;;;;17.52;4.03;;;;;;;20.16;100.00;100232.03;1735769;82;20974;-62
2022/08/25 05:04:23;;;;;;;7.42;3.87;;;;;;;20.17;100.00;100236.39;1742810;80;21097;-61
2022/08/25 05:06:50;;;;;;;11.30;4.50;;;;;;;20.20;100.00;100236.14;1744322;82;21165;-62
2022/08/25 05:09:16;;;;;;;11.83;4.25;;;;;;;20.23;100.00;100242.52;1748529;82;20903;-62
2022/08/25 05:11:43;;;;;;;11.30;4.28;;;;;;;20.20;100.00;100238.80;1748667;81;21397;-61
2022/08/25 05:14:12;;;;;;;10.23;4.28;;;;;;;20.22;100.00;100231.56;1748385;81;20950;-61
2022/08/25 05:16:39;;;;;;;11.43;3.80;;;;;;;20.25;100.00;100226.02;1745781;81;21001;-61
2022/08/25 05:19:06;;;;;;;8.28;4.30;;;;;;;20.24;100.00;100224.31;1746151;82;21126;-61
2022/08/25 05:21:33;;;;;;;14.15;4.17;;;;;;;20.27;100.00;100229.37;1746597;81;20957;-61
2022/08/25 05:24:01;;;;;;;10.38;3.70;;;;;;;20.28;100.00;100228.42;1734922;82;21491;-61
2022/08/25 05:26:30;;;;;;;11.00;3.98;;;;;;;20.34;100.00;100225.27;1743416;81;21009;-65
2022/08/25 05:28:59;;;;;;;14.38;4.47;;;;;;;20.38;100.00;100222.38;1746026;82;21471;-63
2022/08/25 05:31:27;;;;;;;8.58;3.65;;;;;;;20.38;100.00;100219.72;1739473;81;21123;-63
2022/08/25 05:33:54;;;;;;;8.48;4.35;;;;;;;20.42;100.00;100232.63;1738243;82;21067;-63
2022/08/25 05:36:23;;;;;;;10.13;3.65;;;;;;;20.45;100.00;100228.89;1745500;82;21515;-63
2022/08/25 05:38:51;;;;;;;7.33;3.62;;;;;;;20.46;100.00;100218.13;1743141;82;20907;-63
2022/08/25 05:41:21;;;;;;;10.00;3.20;;;;;;;20.48;100.00;100220.68;1742687;81;20963;-63
2022/08/25 05:43:49;;;;;;;12.65;4.00;;;;;;;20.48;100.00;100216.21;1747621;81;21363;-63
2022/08/25 05:46:18;;;;;;;12.45;4.33;;;;;;;20.67;100.00;100208.97;1750448;81;20915;-63
2022/08/25 05:48:45;;;;;;;11.60;4.10;;;;;;;20.83;100.00;100212.51;1747610;81;21484;-63
2022/08/25 05:51:13;;;;;;;;;;;;;;;20.98;100.00;100217.06;1746977;81;20981;-63
2022/08/25 05:53:44;;;;;;;15.43;3.90;;;;;;;21.34;100.00;100206.95;1745554;82;20110;-63
2022/08/25 05:56:13;;;;;;;10.13;4.37;;;;;;;21.72;100.00;100209.53;1743040;82;21246;-63
2022/08/25 05:58:41;;;;;;;9.63;3.80;;;;;;;22.07;100.00;100207.31;1746434;81;20930;-63
2022/08/25 06:03:54;;;;;;;12.07;3.40;;;;;;;22.00;99.24;100208.81;1746701;81;20918;-63
2022/08/25 06:06:23;;;;;;;11.15;4.12;;;;;;;21.96;98.57;100204.75;1743929;81;20914;-63
2022/08/25 06:08:50;;;;;;;15.98;4.60;;;;;;;21.88;99.23;100201.91;1744260;81;21093;-63
2022/08/25 06:11:18;;;;;;;12.18;3.80;;;;;;;21.81;98.53;100206.06;1747777;82;21473;-63
2022/08/25 06:13:44;;;;;;;;;;;;;;;21.63;97.63;100212.00;1746337;81;21034;-62
2022/08/25 06:16:11;;;;;;;11.22;4.12;;;;;;;21.53;98.53;100205.78;1742323;80;20138;-62
2022/08/25 06:18:39;;;;;;;16.12;4.40;;;;;;;21.63;99.37;100218.64;1746251;81;20915;-61
2022/08/25 06:21:14;;;;;;;13.62;3.62;;;;;;;21.84;98.63;100221.75;1748644;81;21033;-64
2022/08/25 06:23:41;;;;;;;8.08;3.60;;;;;;;22.00;98.44;100214.13;1749132;81;20938;-62
2022/08/25 06:26:10;;;;;;;13.08;3.80;;;;;;;22.23;97.42;100208.64;1703369;82;20942;-62
2022/08/25 06:28:37;;;;;;;11.60;3.80;;;;;;;22.47;96.89;100206.46;1750660;81;20903;-62
2022/08/25 06:31:05;;;;;;;23.62;4.60;;;;;;;22.52;96.62;100204.23;1739012;81;21523;-62
2022/08/25 06:33:32;;;;;;;11.65;3.72;;;;;;;22.63;96.54;100201.08;1747028;81;21643;-62
2022/08/25 06:36:00;;;;;;;11.00;4.03;;;;;;;22.72;97.01;100206.92;1715487;83;20985;-63
2022/08/25 06:38:28;;;;;;;10.20;4.03;;;;;;;22.65;96.17;100217.27;1745904;82;21445;-62
2022/08/25 06:40:56;;;;;;;14.93;3.80;;;;;;;22.65;96.17;100217.27;1748036;81;20919;-62
2022/08/25 06:43:23;;;;;;;12.33;3.60;;;;;;;22.58;95.86;100216.64;1746381;81;20910;-63
2022/08/25 06:45:50;;;;;;;9.45;3.27;;;;;;;22.45;95.94;100216.39;1741560;81;22370;-61
2022/08/25 06:48:17;;;;;;;10.05;3.55;;;;;;;22.33;96.28;100218.83;1703097;83;20973;-62
2022/08/25 06:50:43;;;;;;;12.60;3.33;;;;;;;22.35;96.31;100223.53;1749038;82;21620;-61
2022/08/25 06:53:11;;;;;;;9.80;3.47;;;;;;;22.28;96.24;100225.03;1744257;82;21441;-61
2022/08/25 06:55:38;;;;;;;11.28;3.98;;;;;;;22.15;95.52;100232.38;1745538;82;20969;-61
2022/08/25 06:58:05;;;;;;;11.08;3.98;;;;;;;22.03;95.62;100224.49;1744741;81;22011;-61
2022/08/25 07:00:33;;;;;;;20.62;5.12;;;;;;;21.93;95.55;100222.77;1711633;82;21354;-61
2022/08/25 07:03:00;;;;;;;12.63;4.40;;;;;;;21.81;95.23;100232.65;1712684;82;21549;-62
2022/08/25 07:05:28;;;;;;;14.68;4.03;;;;;;;21.86;95.93;100230.44;1713520;82;20914;-62
2022/08/25 07:07:57;;;;;;;10.55;3.85;;;;;;;21.96;94.83;100232.66;1727217;82;20926;-62
2022/08/25 07:10:23;;;;;;;13.00;3.90;;;;;;;21.96;95.38;100234.00;1747755;81;21100;-62
2022/08/25 07:12:50;;;;;;;13.88;3.98;;;;;;;22.06;95.83;100240.17;1726591;82;21353;-62
2022/08/25 07:15:19;;;;;;;12.00;4.10;;;;;;;22.23;95.25;100248.53;1744075;81;20963;-62
2022/08/25 07:17:46;;;;;;;13.48;3.98;;;;;;;22.36;94.09;100241.16;1725649;82;20973;-63
2022/08/25 07:20:13;;;;;;;13.22;4.25;;;;;;;22.42;93.51;100238.45;1737587;81;20979;-62
2022/08/25 07:22:40;;;;;;;11.00;3.90;;;;;;;22.45;94.24;100250.14;1728845;82;21490;-63
2022/08/25 07:25:10;;;;;;;13.28;4.03;;;;;;;22.55;93.94;100248.36;1745719;81;21492;-61
2022/08/25 07:27:38;;;;;;;13.75;4.30;;;;;;;22.82;94.36;100247.69;1731254;82;20929;-62
2022/08/25 07:30:07;;;;;;;12.82;4.33;;;;;;;23.12;95.13;100251.25;1747469;81;21484;-62
2022/08/25 07:32:34;;;;;;;10.75;3.85;;;;;;;23.54;95.32;100251.77;1700580;82;20939;-62
2022/08/25 07:35:19;;;;;;;13.65;4.25;;;;;;;23.81;91.64;100245.70;1743957;82;21021;-62
2022/08/25 07:37:49;;;;;;;15.45;4.30;;;;;;;24.10;91.94;100246.09;1730108;82;20910;-62
2022/08/25 07:40:27;;;;;;;15.63;4.62;;;;;;;24.28;91.69;100240.80;1738390;82;20969;-62
2022/08/25 07:42:58;;;;;;;15.63;4.25;;;;;;;24.44;90.05;100246.86;1701536;84;20949;-63
2022/08/25 07:45:32;;;;;;;14.10;4.42;;;;;;;24.93;92.46;100242.05;1743303;82;21725;-62
2022/08/25 07:48:04;;;;;;;12.03;4.53;;;;;;;25.35;91.57;100241.44;1729531;82;22251;-62
2022/08/25 07:50:31;;;;;;;18.23;4.40;;;;;;;25.23;89.39;100248.37;1741168;81;20982;-61
2022/08/25 07:52:59;;;;;;;11.28;4.08;;;;;;;25.31;90.03;100245.40;1727221;82;20918;-61
2022/08/25 07:55:27;;;;;;;9.58;3.62;;;;;;;25.20;89.51;100249.98;1729419;81;20976;-61
2022/08/25 07:57:55;;;;;;;14.98;4.33;;;;;;;24.98;84.50;100247.75;1730944;82;21012;-61
2022/08/25 08:00:26;;;;;;;12.58;3.90;;;;;;;24.67;86.54;100252.62;1744680;82;21496;-63
2022/08/25 08:02:51;;;;;;;12.37;3.80;;;;;;;24.52;85.48;100256.30;1727650;82;20922;-60
2022/08/25 08:05:18;;;;;;;12.70;4.37;;;;;;;24.16;82.44;100257.50;1742968;81;20888;-61
2022/08/25 08:07:45;;;;;;;14.05;4.17;;;;;;;23.90;85.15;100260.83;1748143;81;20939;-61
2022/08/25 08:10:14;;;;;;;18.90;4.60;;;;;;;23.82;85.85;100258.04;1742123;81;20977;-61
2022/08/25 08:12:41;;;;;;;11.97;4.35;;;;;;;23.86;85.47;100264.78;1739684;82;21886;-61
2022/08/25 08:15:08;;;;;;;;;;;;;;;23.59;84.10;100264.67;1742353;81;20958;-61
2022/08/25 08:17:35;;;;;;;17.70;3.90;;;;;;;23.27;84.18;100265.81;1738000;81;20182;-61
2022/08/25 08:20:05;;;;;;;15.53;4.10;;;;;;;23.08;84.71;100270.67;1729381;81;20930;-61
2022/08/25 08:22:33;;;;;;;17.60;4.65;;;;;;;22.96;84.76;100267.27;1732998;81;21025;-61
2022/08/25 08:25:00;;;;;;;38.23;4.78;;;;;;;22.91;85.43;100271.30;1743814;81;21467;-61
2022/08/25 08:27:27;;;;;;;15.43;4.85;;;;;;;22.94;85.98;100269.72;1744651;81;20903;-62
2022/08/25 08:29:54;;;;;;;17.90;5.12;;;;;;;22.97;86.43;100268.14;1741416;81;21603;-62
2022/08/25 08:32:21;;;;;;;15.48;4.65;;;;;;;23.01;85.59;100270.37;1735951;81;26797;-61
2022/08/25 08:34:48;;;;;;;18.62;6.25;;;;;;;23.06;86.10;100275.78;1735281;81;20929;-62
2022/08/25 08:37:15;;;;;;;19.80;6.17;;;;;;;23.34;86.47;100276.77;1745244;81;21725;-60
2022/08/25 08:39:41;;;;;;;19.07;5.40;;;;;;;23.38;85.10;100273.66;1744094;82;20955;-61
2022/08/25 08:42:41;;;;;;;20.48;5.33;;;;;;;23.39;85.78;100270.03;1748273;81;20966;-61
2022/08/25 08:45:34;;;;;;;19.48;5.55;;;;;;;23.45;86.03;100269.45;1642808;86;20899;-61
2022/08/25 08:48:15;;;;;;;20.08;5.55;;;;;;;23.72;85.94;100259.05;1644524;86;21018;-61
2022/08/25 08:51:03;;;;;;;10.30;4.17;;;;;;;23.89;85.69;100260.48;1629543;86;21080;-62
2022/08/25 08:53:45;;;;;;;14.93;3.85;;;;;;;24.04;85.29;100261.34;1634046;86;20974;-61
2022/08/25 08:56:25;;;;;;;14.28;4.97;;;;;;;23.88;83.95;100265.45;1642174;86;21055;-61
2022/08/25 08:59:05;;;;;;;13.25;4.20;;;;;;;23.66;83.43;100264.43;1630741;86;20969;-61
2022/08/25 09:01:43;;;;;;;16.60;5.03;;;;;;;23.46;83.43;100267.13;1662343;86;20943;-61
2022/08/25 09:04:24;;;;;;;13.58;4.85;;;;;;;23.59;84.57;100260.67;1653720;86;21039;-62
2022/08/25 09:06:51;;;;;;;14.30;4.55;;;;;;;23.92;85.42;100254.49;1640654;84;21542;-61
2022/08/25 09:09:26;;;;;;;;;;;;;;;24.12;84.01;100261.45;1628261;87;20973;-61
2022/08/25 09:12:40;;;;;;;14.55;4.53;;;;;;;24.05;83.84;100253.68;1615383;87;20197;-62
2022/08/25 09:18:45;;;;;;;20.02;5.10;;;;;;;23.86;83.70;100256.78;1730060;81;21904;-62
2022/08/25 09:21:23;;;;;;;12.55;5.25;;;;;;;24.07;84.48;100243.72;1734095;81;20891;-64
2022/08/25 09:23:59;;;;;;;13.40;5.78;;;;;;;24.18;83.91;100243.52;1711724;82;20919;-63
2022/08/25 09:26:41;;;;;;;11.95;5.33;;;;;;;24.09;82.49;100252.42;1707966;82;20875;-63
2022/08/25 09:29:14;;;;;;;14.38;6.30;;;;;;;23.95;82.77;100243.56;1733872;81;21005;-63
2022/08/25 09:31:41;;;;;;;19.30;6.50;;;;;;;23.84;82.94;100242.74;1704200;82;21521;-63
2022/08/25 09:34:19;;;;;;;13.83;5.75;;;;;;;23.79;82.43;100250.34;1740205;81;20922;-63
2022/08/25 09:36:51;;;;;;;16.20;5.75;;;;;;;23.64;82.66;100243.77;1728537;82;20973;-63
2022/08/25 09:39:16;;;;;;;12.90;6.30;;;;;;;23.45;81.15;100239.30;1704278;82;21476;-62
2022/08/25 09:41:59;;;;;;;17.32;6.05;;;;;;;23.37;82.68;100238.67;1738730;82;20935;-63
2022/08/25 09:44:33;;;;;;;20.00;6.95;;;;;;;23.38;82.62;100236.34;1746175;82;21869;-62
2022/08/25 09:47:23;;;;;;;14.15;5.67;;;;;;;23.37;82.47;100236.51;1744871;82;20935;-64
2022/08/25 09:49:59;;;;;;;18.85;6.40;;;;;;;23.40;82.63;100238.39;1746563;81;20957;-64
2022/08/25 09:52:39;;;;;;;23.30;6.28;;;;;;;23.63;82.78;100227.40;1745402;81;21792;-63
2022/08/25 09:55:12;;;;;;;15.60;6.22;;;;;;;23.58;82.07;100225.66;1744322;82;20934;-63
2022/08/25 09:57:50;;;;;;;24.43;6.25;;;;;;;23.61;82.40;100220.03;1745606;81;21920;-64
2022/08/25 10:00:25;;;;;;;15.43;6.28;;;;;;;23.46;81.46;100227.16;1745506;81;20911;-62
2022/08/25 10:03:20;;;;;;;15.83;6.62;;;;;;;23.11;81.87;100228.27;1751165;81;21647;-62
2022/08/25 10:06:02;;;;;;;15.68;6.45;;;;;;;22.96;81.90;100228.66;1747948;81;20994;-63
2022/08/25 10:08:45;;;;;;;12.60;5.30;;;;;;;22.68;82.59;100226.80;1742696;81;20960;-63
2022/08/25 10:11:32;;;;;;;14.70;6.40;;;;;;;22.55;83.40;100227.07;1740937;81;21100;-63
2022/08/25 10:14:07;;;;;;;14.93;6.00;;;;;;;22.66;83.10;100218.09;1669509;83;20971;-62
2022/08/25 10:16:34;;;;;;;20.20;6.78;;;;;;;22.69;83.29;100206.70;1739789;82;20906;-63
2022/08/25 10:19:18;;;;;;;14.23;5.62;;;;;;;22.76;83.54;100208.31;1733614;82;20906;-63
2022/08/25 10:21:45;;;;;;;18.62;6.15;;;;;;;22.71;83.32;100202.09;1700383;82;20969;-63
2022/08/25 10:24:14;;;;;;;21.75;6.33;;;;;;;22.76;83.61;100197.66;1751343;81;21010;-62
2022/08/25 10:27:15;;;;;;;19.20;5.72;;;;;;;22.95;84.27;100199.50;1746462;81;21017;-63
2022/08/25 10:30:17;;;;;;;12.63;5.50;;;;;;;22.95;83.49;100203.03;1733618;81;21044;-63
2022/08/25 10:32:59;;;;;;;17.48;6.53;;;;;;;23.04;84.13;100195.18;1736862;81;20899;-63
2022/08/25 10:35:46;;;;;;;16.80;6.08;;;;;;;23.42;84.44;100188.96;1736740;81;20914;-65
2022/08/25 10:38:40;;;;;;;10.80;5.95;;;;;;;23.82;84.60;100179.37;1733239;81;21013;-63
2022/08/25 10:41:27;;;;;;;13.43;6.08;;;;;;;23.99;83.37;100170.25;1742323;82;21436;-64
2022/08/25 10:47:44;;;;;;;19.23;6.05;;;;;;;23.62;81.53;100175.09;1740611;82;20922;-64
2022/08/25 10:50:28;;;;;;;17.85;6.55;;;;;;;23.34;82.60;100173.69;1742179;81;20961;-62
2022/08/25 10:53:15;;;;;;;11.73;6.25;;;;;;;23.39;83.30;100167.44;1743122;81;21181;-65
2022/08/25 10:56:02;;;;;;;18.00;7.25;;;;;;;23.44;83.22;100167.84;1735781;81;20904;-64
2022/08/25 10:59:05;;;;;;;20.40;8.05;;;;;;;23.62;82.82;100156.42;1743359;81;20957;-63
2022/08/25 11:01:48;;;;;;;17.25;7.47;;;;;;;23.42;81.95;100160.48;1702546;82;20968;-64
2022/08/25 11:04:47;;;;;;;16.45;6.47;;;;;;;23.27;82.59;100151.75;1732940;81;21500;-64
2022/08/25 11:07:25;;;;;;;16.87;7.15;;;;;;;23.11;83.08;100157.69;1740524;81;22500;-63
2022/08/25 11:10:02;;;;;;;18.12;7.45;;;;;;;23.12;82.68;100168.68;1748236;81;20926;-64
2022/08/25 11:12:43;;;;;;;27.20;8.05;;;;;;;22.93;83.22;100159.69;1746978;81;20984;-64
2022/08/25 11:15:18;;;;;;;20.68;8.80;;;;;;;22.86;83.33;100158.59;1673477;83;20917;-64
2022/08/25 11:17:58;;;;;;;20.77;7.65;;;;;;;22.76;83.61;100163.06;1701022;83;20985;-64
2022/08/25 11:20:33;;;;;;;21.25;8.70;;;;;;;22.50;84.08;100164.94;1709708;82;21013;-62
2022/08/25 11:23:16;;;;;;;32.28;9.35;;;;;;;22.38;84.39;100163.40;1713361;82;21005;-64
2022/08/25 11:25:49;;;;;;;21.48;7.85;;;;;;;22.40;84.67;100164.57;1721397;82;20945;-63
2022/08/25 11:28:52;;;;;;;35.78;8.85;;;;;;;22.29;85.54;100157.55;1742919;81;20911;-63
2022/08/25 11:31:22;;;;;;;29.30;9.00;;;;;;;22.19;84.72;100164.69;1698423;83;21095;-63
2022/08/25 11:33:50;;;;;;;25.37;8.60;;;;;;;22.17;85.43;100163.94;1702102;83;21039;-63
2022/08/25 11:36:25;;;;;;;22.80;9.40;;;;;;;22.05;85.26;100168.04;1689202;82;20950;-63
2022/08/25 11:39:35;;;;;;;22.22;7.87;;;;;;;21.95;85.36;100161.00;1699176;82;20979;-63
2022/08/25 11:42:32;;;;;;;20.97;8.40;;;;;;;21.94;85.69;100169.97;1672360;84;21591;-62
2022/08/25 11:45:06;;;;;;;22.07;8.03;;;;;;;21.92;86.02;100170.09;1655621;85;21629;-63
2022/08/25 11:47:41;;;;;;;21.73;7.58;;;;;;;22.17;85.95;100172.75;1681027;84;21053;-63
2022/08/25 11:50:30;;;;;;;24.87;8.78;;;;;;;22.36;86.09;100168.50;1645825;84;20935;-62
2022/08/25 11:53:21;;;;;;;25.25;8.18;;;;;;;22.38;85.38;100168.72;1680179;84;20935;-62